createdAt,value
2022-12-14T00:01:51.974Z,17.60
2022-12-14T00:04:20.630Z,15.43
2022-12-14T00:06:48.403Z,15.87
2022-12-14T00:09:15.593Z,15.90
2022-12-14T00:11:42.717Z,12.17
2022-12-14T00:14:10.214Z,13.57
2022-12-14T00:16:37.522Z,13.93
2022-12-14T00:19:05.706Z,14.00
2022-12-14T00:21:33.988Z,15.63
2022-12-14T00:24:01.140Z,15.13
2022-12-14T00:26:31.888Z,13.50
2022-12-14T00:29:01.562Z,13.33
2022-12-14T00:31:29.956Z,14.57
2022-12-14T00:33:57.163Z,14.67
2022-12-14T00:36:24.864Z,14.57
2022-12-14T00:38:52.108Z,14.50
2022-12-14T00:41:19.448Z,16.33
2022-12-14T00:43:49.936Z,15.13
2022-12-14T00:46:18.098Z,15.20
2022-12-14T00:48:45.672Z,16.87
2022-12-14T00:51:15.086Z,14.30
2022-12-14T00:53:44.060Z,14.53
2022-12-14T00:56:12.180Z,16.30
2022-12-14T00:58:39.500Z,14.70
2022-12-14T01:01:15.078Z,15.57
2022-12-14T01:03:42.927Z,14.23
2022-12-14T01:06:23.358Z,15.80
2022-12-14T01:08:50.625Z,14.00
2022-12-14T01:11:17.881Z,14.57
2022-12-14T01:13:49.295Z,17.60
2022-12-14T01:16:18.464Z,14.60
2022-12-14T01:18:46.871Z,16.00
2022-12-14T01:21:20.337Z,15.13
2022-12-14T01:23:52.993Z,12.90
2022-12-14T01:26:24.957Z,13.47
2022-12-14T01:28:59.198Z,12.80
2022-12-14T01:31:30.922Z,15.03
2022-12-14T01:33:59.169Z,14.23
2022-12-14T01:36:30.569Z,13.87
2022-12-14T01:39:15.725Z,15.47
2022-12-14T01:41:53.118Z,14.13
2022-12-14T01:44:20.376Z,13.43
2022-12-14T01:47:12.370Z,15.03
2022-12-14T01:49:54.873Z,13.27
2022-12-14T01:52:38.714Z,15.00
2022-12-14T01:55:22.754Z,14.63
2022-12-14T01:58:02.236Z,15.30
2022-12-14T02:00:29.840Z,13.30
2022-12-14T02:03:07.840Z,13.83
2022-12-14T02:05:54.033Z,13.37
2022-12-14T02:08:24.193Z,13.37
2022-12-14T02:10:54.218Z,15.07
2022-12-14T02:13:35.421Z,13.50
2022-12-14T02:16:03.319Z,14.67
2022-12-14T02:18:32.174Z,13.33
2022-12-14T02:21:50.322Z,12.97
2022-12-14T02:24:54.820Z,14.70
2022-12-14T02:27:25.286Z,14.07
2022-12-14T02:30:21.860Z,14.37
2022-12-14T02:33:21.676Z,12.87
2022-12-14T02:40:00.936Z,14.17
2022-12-14T02:43:12.195Z,14.40
2022-12-14T02:46:18.930Z,13.03
2022-12-14T02:49:01.119Z,12.93
2022-12-14T02:51:55.995Z,13.10
2022-12-14T02:55:04.339Z,12.73
2022-12-14T02:57:58.163Z,11.20
2022-12-14T03:00:28.867Z,13.47
2022-12-14T03:02:57.719Z,14.67
2022-12-14T03:05:28.482Z,13.93
2022-12-14T03:08:06.957Z,13.80
2022-12-14T03:10:58.615Z,14.17
2022-12-14T03:13:44.634Z,15.43
2022-12-14T03:16:30.560Z,13.60
2022-12-14T03:19:04.642Z,12.83
2022-12-14T03:21:44.385Z,13.00
2022-12-14T03:24:19.153Z,12.87
2022-12-14T03:27:07.666Z,15.83
2022-12-14T03:29:54.157Z,11.83
2022-12-14T03:32:25.584Z,13.60
2022-12-14T03:35:05.091Z,12.47
2022-12-14T03:37:56.589Z,14.97
2022-12-14T03:40:48.528Z,11.83
2022-12-14T03:43:41.060Z,14.23
2022-12-14T03:46:25.376Z,14.10
2022-12-14T03:49:02.301Z,11.77
2022-12-14T03:52:06.587Z,13.10
2022-12-14T03:54:51.696Z,12.83
2022-12-14T03:57:43.816Z,11.93
2022-12-14T04:00:17.008Z,13.77
2022-12-14T04:03:05.855Z,10.77
2022-12-14T04:06:02.670Z,11.73
2022-12-14T04:09:04.697Z,10.30
2022-12-14T04:11:59.563Z,12.23
2022-12-14T04:14:53.951Z,11.50
2022-12-14T04:17:46.997Z,10.70
2022-12-14T04:20:47.282Z,11.93
2022-12-14T04:23:45.274Z,13.10
2022-12-14T04:26:19.486Z,11.87
2022-12-14T04:29:20.841Z,11.07
2022-12-14T04:32:00.971Z,11.40
2022-12-14T04:34:30.529Z,10.70
2022-12-14T04:37:02.877Z,11.53
2022-12-14T04:39:47.931Z,13.57
2022-12-14T04:42:18.116Z,11.40
2022-12-14T04:44:55.249Z,10.80
2022-12-14T04:47:32.387Z,10.23
2022-12-14T04:50:17.819Z,12.10
2022-12-14T04:53:14.009Z,12.57
2022-12-14T04:56:20.290Z,12.53
2022-12-14T04:58:47.771Z,11.63
2022-12-14T05:01:51.721Z,9.80
2022-12-14T05:04:30.904Z,12.77
2022-12-14T05:07:31.568Z,11.77
2022-12-14T05:10:10.267Z,12.43
2022-12-14T05:13:05.472Z,11.50
2022-12-14T05:16:02.813Z,10.10
2022-12-14T05:18:33.695Z,10.37
2022-12-14T05:21:01.099Z,12.90
2022-12-14T05:23:28.641Z,9.73
2022-12-14T05:25:56.291Z,12.03
2022-12-14T05:28:23.463Z,11.33
2022-12-14T05:30:50.922Z,11.50
2022-12-14T05:33:20.469Z,14.30
2022-12-14T05:35:48.027Z,11.50
2022-12-14T05:38:15.134Z,12.90
2022-12-14T05:40:42.960Z,10.10
2022-12-14T05:43:12.625Z,11.80
2022-12-14T05:45:40.236Z,12.60
2022-12-14T05:48:07.430Z,10.93
2022-12-14T05:50:34.614Z,10.20
2022-12-14T05:53:01.984Z,12.17
2022-12-14T05:55:29.263Z,15.13
2022-12-14T05:57:56.777Z,11.33
2022-12-14T06:00:24.023Z,11.37
2022-12-14T06:02:51.363Z,12.70
2022-12-14T06:05:18.476Z,12.10
2022-12-14T06:07:48.582Z,11.27
2022-12-14T06:10:16.415Z,11.40
2022-12-14T06:12:43.677Z,16.20
2022-12-14T06:15:11.277Z,15.90
2022-12-14T06:18:06.021Z,13.30
2022-12-14T06:20:33.309Z,15.23
2022-12-14T06:23:01.716Z,12.37
2022-12-14T06:25:29.658Z,11.57
2022-12-14T06:27:57.043Z,10.93
2022-12-14T06:30:24.261Z,12.53
2022-12-14T06:32:51.383Z,11.33
2022-12-14T06:35:18.791Z,11.53
2022-12-14T06:37:46.062Z,12.70
2022-12-14T06:40:16.348Z,12.80
2022-12-14T06:42:44.506Z,14.67
2022-12-14T06:45:12.033Z,12.90
2022-12-14T06:47:40.322Z,13.40
2022-12-14T06:50:08.041Z,10.93
2022-12-14T06:52:35.082Z,10.30
2022-12-14T06:55:02.240Z,11.80
2022-12-14T06:57:29.471Z,14.17
2022-12-14T06:59:56.753Z,13.57
2022-12-14T07:02:24.300Z,10.97
2022-12-14T07:04:51.555Z,13.87
2022-12-14T07:07:18.818Z,12.33
2022-12-14T07:09:45.970Z,13.17
2022-12-14T07:12:13.153Z,13.17
2022-12-14T07:14:40.516Z,11.23
2022-12-14T07:17:07.897Z,11.50
2022-12-14T07:19:35.294Z,11.90
2022-12-14T07:22:04.437Z,11.73
2022-12-14T07:24:32.041Z,12.53
2022-12-14T07:27:00.447Z,12.20
2022-12-14T07:29:34.118Z,14.57
2022-12-14T07:32:01.868Z,13.60
2022-12-14T07:34:29.125Z,14.50
2022-12-14T07:36:56.621Z,14.10
2022-12-14T07:39:24.349Z,9.90
2022-12-14T07:41:52.240Z,11.33
2022-12-14T07:44:19.502Z,12.10
2022-12-14T07:46:48.244Z,12.97
2022-12-14T07:49:15.633Z,13.20
2022-12-14T07:51:44.364Z,14.47
2022-12-14T07:54:12.943Z,13.53
2022-12-14T07:56:43.322Z,11.60
2022-12-14T07:59:19.327Z,12.97
2022-12-14T08:01:46.582Z,13.90
2022-12-14T08:04:20.895Z,15.20
2022-12-14T08:06:49.384Z,14.87
2022-12-14T08:09:17.502Z,13.43
2022-12-14T08:11:45.165Z,13.03
2022-12-14T08:14:19.187Z,14.73
2022-12-14T08:16:48.842Z,12.53
2022-12-14T08:19:18.272Z,13.17
2022-12-14T08:21:45.981Z,11.77
2022-12-14T08:24:14.830Z,11.07
2022-12-14T08:26:42.065Z,12.33
2022-12-14T08:29:16.951Z,11.87
2022-12-14T08:31:44.260Z,10.70
2022-12-14T08:34:11.601Z,13.73
2022-12-14T08:36:39.102Z,12.07
2022-12-14T08:39:16.602Z,14.87
2022-12-14T08:41:43.727Z,16.47
2022-12-14T08:44:11.745Z,14.80
2022-12-14T08:46:39.605Z,14.37
2022-12-14T08:49:07.018Z,12.93
2022-12-14T08:51:39.623Z,14.40
2022-12-14T08:54:06.734Z,15.30
2022-12-14T08:56:34.029Z,14.53
2022-12-14T08:59:01.498Z,13.20
2022-12-14T09:01:34.029Z,14.73
2022-12-14T09:04:08.404Z,13.37
2022-12-14T09:06:39.258Z,14.93
2022-12-14T09:09:15.462Z,14.13
2022-12-14T09:11:44.998Z,15.53
2022-12-14T09:14:12.756Z,14.27
2022-12-14T09:16:41.208Z,19.00
2022-12-14T09:19:08.957Z,14.77
2022-12-14T09:21:36.726Z,17.87
2022-12-14T09:24:05.877Z,16.17
2022-12-14T09:26:37.608Z,15.83
2022-12-14T09:29:05.818Z,14.73
2022-12-14T09:31:33.161Z,18.60
2022-12-14T09:34:00.681Z,19.70
2022-12-14T09:36:29.347Z,17.83
2022-12-14T09:38:57.951Z,17.13
2022-12-14T09:41:35.955Z,14.20
2022-12-14T09:44:29.500Z,15.73
2022-12-14T09:47:27.928Z,18.57
2022-12-14T09:50:06.816Z,16.53
2022-12-14T09:53:16.274Z,13.53
2022-12-14T09:55:51.958Z,19.10
2022-12-14T09:58:33.109Z,16.60
2022-12-14T10:01:23.148Z,16.37
2022-12-14T10:04:16.594Z,17.60
2022-12-14T10:07:20.359Z,13.43
2022-12-14T10:10:06.234Z,16.73
2022-12-14T10:12:51.597Z,15.37
2022-12-14T10:15:55.984Z,18.30
2022-12-14T10:19:02.451Z,14.03
2022-12-14T10:22:19.661Z,15.13
2022-12-14T10:24:55.736Z,16.23
2022-12-14T10:27:27.493Z,17.50
2022-12-14T10:30:08.726Z,17.63
2022-12-14T10:32:40.697Z,16.00
2022-12-14T10:35:21.148Z,15.33
2022-12-14T10:38:21.383Z,14.40
2022-12-14T10:40:53.785Z,13.03
2022-12-14T10:43:58.413Z,13.77
2022-12-14T10:46:40.000Z,15.60
2022-12-14T10:50:01.449Z,15.93
2022-12-14T10:53:08.586Z,14.50
2022-12-14T10:55:41.738Z,15.73
2022-12-14T10:58:11.909Z,14.53
2022-12-14T11:00:39.931Z,14.27
2022-12-14T11:03:15.778Z,15.87
2022-12-14T11:05:56.281Z,12.77
2022-12-14T11:08:48.073Z,13.20
2022-12-14T11:11:25.921Z,16.90
2022-12-14T11:14:18.686Z,16.03
2022-12-14T11:16:46.054Z,12.90
2022-12-14T11:19:23.925Z,13.43
2022-12-14T11:22:11.202Z,13.17
2022-12-14T11:24:48.676Z,13.83
2022-12-14T11:27:21.462Z,13.90
2022-12-14T11:29:50.993Z,15.33
2022-12-14T11:32:26.427Z,14.93
2022-12-14T11:34:59.393Z,14.20
2022-12-14T11:37:32.367Z,15.50
2022-12-14T11:40:06.782Z,13.97
2022-12-14T11:42:34.199Z,14.93
2022-12-14T11:45:29.412Z,13.70
2022-12-14T11:48:15.261Z,16.43
2022-12-14T11:50:45.017Z,14.10
2022-12-14T11:53:18.814Z,16.10
2022-12-14T11:55:59.902Z,16.37
2022-12-14T11:58:34.164Z,14.77
2022-12-14T12:01:26.556Z,13.40
2022-12-14T12:03:58.911Z,17.20
2022-12-14T12:06:31.435Z,14.93
2022-12-14T12:09:12.368Z,13.27
2022-12-14T12:11:45.477Z,15.67
2022-12-14T12:14:35.626Z,16.00
2022-12-14T12:17:20.404Z,13.07
2022-12-14T12:19:51.563Z,15.50
2022-12-14T12:22:20.463Z,15.50
2022-12-14T12:25:33.642Z,13.90
2022-12-14T12:28:29.823Z,13.67
2022-12-14T12:31:11.013Z,17.13
2022-12-14T12:33:54.674Z,14.17
2022-12-14T12:36:24.496Z,13.17
2022-12-14T12:39:25.039Z,12.23
2022-12-14T12:42:15.268Z,14.90
2022-12-14T12:45:04.493Z,14.33
2022-12-14T12:47:51.387Z,16.10
2022-12-14T12:50:27.872Z,16.43
2022-12-14T12:53:12.877Z,13.17
2022-12-14T12:55:52.628Z,12.70
2022-12-14T12:58:32.744Z,14.80
2022-12-14T13:01:20.267Z,13.27
2022-12-14T13:03:55.977Z,15.67
2022-12-14T13:06:52.772Z,14.13
2022-12-14T13:09:48.936Z,13.90
2022-12-14T13:13:10.602Z,15.43
2022-12-14T13:16:28.080Z,14.67
2022-12-14T13:19:48.717Z,12.00
2022-12-14T13:21:54.588Z,13.10
2022-12-14T13:24:23.874Z,13.33
2022-12-14T13:27:17.880Z,18.13
2022-12-14T13:30:17.770Z,13.13
2022-12-14T13:33:45.994Z,14.90
2022-12-14T13:36:36.717Z,12.50
2022-12-14T13:39:46.242Z,15.63
2022-12-14T13:42:40.439Z,15.37
2022-12-14T13:45:23.809Z,19.30
2022-12-14T13:47:55.704Z,13.43
2022-12-14T13:50:37.162Z,14.23
2022-12-14T13:53:16.628Z,14.67
2022-12-14T13:55:55.719Z,15.63
2022-12-14T13:58:46.145Z,11.57
2022-12-14T14:01:48.517Z,13.70
2022-12-14T14:04:31.490Z,12.50
2022-12-14T14:07:26.559Z,15.00
2022-12-14T14:10:03.180Z,12.20
2022-12-14T14:12:39.620Z,15.00
2022-12-14T14:16:26.931Z,12.73
2022-12-14T14:19:02.976Z,10.83
2022-12-14T14:25:25.287Z,14.13
2022-12-14T14:28:00.042Z,13.70
2022-12-14T14:30:42.724Z,12.27
2022-12-14T14:33:47.800Z,16.43
2022-12-14T14:36:37.830Z,13.13
2022-12-14T14:39:54.990Z,14.33
2022-12-14T14:42:25.341Z,12.57
2022-12-14T14:45:08.727Z,14.27
2022-12-14T14:47:40.376Z,12.77
2022-12-14T14:50:24.069Z,12.47
2022-12-14T14:53:14.030Z,16.33
2022-12-14T14:56:00.149Z,12.20
2022-12-14T14:58:37.884Z,18.37
2022-12-14T15:01:29.847Z,17.57
2022-12-14T15:04:00.411Z,12.37
2022-12-14T15:06:40.244Z,17.60
2022-12-14T15:09:11.152Z,15.63
2022-12-14T15:11:56.825Z,15.50
2022-12-14T15:14:48.827Z,13.40
2022-12-14T15:17:21.927Z,12.03
2022-12-14T15:19:51.852Z,13.10
2022-12-14T15:22:23.693Z,13.03
2022-12-14T15:24:56.288Z,13.20
2022-12-14T15:27:28.013Z,13.87
2022-12-14T15:30:02.751Z,14.20
2022-12-14T15:32:33.737Z,13.03
2022-12-14T15:35:09.069Z,13.33
2022-12-14T15:37:58.003Z,16.13
2022-12-14T15:40:32.789Z,17.07
2022-12-14T15:43:17.955Z,15.60
2022-12-14T15:45:50.862Z,16.83
2022-12-14T15:48:34.614Z,14.43
2022-12-14T15:51:17.029Z,13.50
2022-12-14T15:53:57.562Z,14.70
2022-12-14T15:56:45.801Z,16.83
2022-12-14T15:59:32.552Z,16.57
2022-12-14T16:02:46.417Z,35.90
2022-12-14T16:05:22.002Z,29.27
2022-12-14T16:07:56.188Z,18.73
2022-12-14T16:10:32.040Z,19.83
2022-12-14T16:13:25.439Z,22.60
2022-12-14T16:15:54.296Z,16.73
2022-12-14T16:18:21.954Z,20.30
2022-12-14T16:21:03.989Z,16.33
2022-12-14T16:23:39.122Z,18.97
2022-12-14T16:29:29.086Z,21.07
2022-12-14T16:32:06.208Z,16.37
2022-12-14T16:34:34.176Z,17.33
2022-12-14T16:37:31.479Z,17.80
2022-12-14T16:39:53.755Z,18.13
2022-12-14T16:42:31.507Z,15.57
2022-12-14T16:44:58.697Z,15.87
2022-12-14T16:47:35.272Z,15.03
2022-12-14T16:50:40.068Z,15.47
2022-12-14T16:53:26.323Z,14.40
2022-12-14T16:56:04.778Z,16.73
2022-12-14T16:58:34.442Z,17.60
2022-12-14T17:01:06.407Z,16.10
2022-12-14T17:03:36.348Z,18.60
2022-12-14T17:06:06.688Z,15.50
2022-12-14T17:08:34.824Z,15.77
2022-12-14T17:11:03.327Z,15.87
2022-12-14T17:13:31.647Z,15.43
2022-12-14T17:16:06.817Z,18.37
2022-12-14T17:18:41.521Z,15.87
2022-12-14T17:21:16.768Z,16.17
2022-12-14T17:23:46.256Z,18.80
2022-12-14T17:26:30.596Z,15.83
2022-12-14T17:28:58.781Z,15.50
2022-12-14T17:31:27.832Z,18.73
2022-12-14T17:33:57.391Z,20.90
2022-12-14T17:36:25.377Z,28.53
2022-12-14T17:38:53.907Z,28.70
2022-12-14T17:41:26.214Z,21.77
2022-12-14T17:43:57.791Z,24.57
2022-12-14T17:46:26.010Z,22.43
2022-12-14T17:48:53.618Z,24.17
2022-12-14T17:51:30.492Z,21.23
2022-12-14T17:53:59.655Z,21.13
2022-12-14T17:56:26.854Z,25.10
2022-12-14T17:58:54.388Z,25.47
2022-12-14T18:01:24.988Z,25.00
2022-12-14T18:03:52.520Z,26.23
2022-12-14T18:06:23.342Z,27.63
2022-12-14T18:08:51.625Z,33.00
2022-12-14T18:11:25.959Z,37.97
2022-12-14T18:13:54.479Z,37.23
2022-12-14T18:16:24.810Z,35.20
2022-12-14T18:18:54.582Z,37.00
2022-12-14T18:21:29.862Z,38.13
2022-12-14T18:23:58.856Z,37.03
2022-12-14T18:26:27.623Z,43.23
2022-12-14T18:28:59.487Z,38.33
2022-12-14T18:31:34.993Z,39.53
2022-12-14T18:34:04.097Z,34.63
2022-12-14T18:36:31.376Z,32.83
2022-12-14T18:38:58.912Z,33.53
2022-12-14T18:41:27.579Z,38.20
2022-12-14T18:43:56.023Z,35.87
2022-12-14T18:46:24.429Z,33.87
2022-12-14T18:48:52.616Z,37.03
2022-12-14T18:51:23.782Z,50.63
2022-12-14T18:53:52.379Z,54.30
2022-12-14T18:56:24.815Z,49.97
2022-12-14T18:58:52.765Z,46.77
2022-12-14T19:01:25.071Z,41.47
2022-12-14T19:03:53.231Z,41.00
2022-12-14T19:09:13.826Z,56.70
2022-12-14T19:11:44.118Z,47.10
2022-12-14T19:14:12.120Z,44.90
2022-12-14T19:16:42.105Z,39.97
2022-12-14T19:19:09.375Z,41.00
2022-12-14T19:21:39.023Z,35.90
2022-12-14T19:24:08.726Z,36.80
2022-12-14T19:26:40.029Z,37.60
2022-12-14T19:29:07.615Z,39.03
2022-12-14T19:31:35.083Z,36.43
2022-12-14T19:34:02.490Z,40.80
2022-12-14T19:36:29.806Z,35.03
2022-12-14T19:39:00.450Z,33.87
2022-12-14T19:41:29.238Z,35.20
2022-12-14T19:43:58.231Z,36.33
2022-12-14T19:46:26.262Z,34.97
2022-12-14T19:48:57.589Z,32.43
2022-12-14T19:51:24.987Z,36.53
2022-12-14T19:53:54.748Z,29.57
2022-12-14T19:56:22.574Z,33.20
2022-12-14T19:58:49.970Z,29.13
2022-12-14T20:01:21.095Z,26.83
2022-12-14T20:03:50.644Z,30.63
2022-12-14T20:06:17.951Z,27.50
2022-12-14T20:08:45.994Z,28.67
2022-12-14T20:11:16.849Z,28.00
2022-12-14T20:13:43.931Z,29.10
2022-12-14T20:16:17.372Z,29.00
2022-12-14T20:18:46.177Z,28.23
2022-12-14T20:21:21.659Z,27.80
2022-12-14T20:23:50.351Z,31.30
2022-12-14T20:26:21.711Z,33.23
2022-12-14T20:28:52.825Z,30.53
2022-12-14T20:31:21.239Z,29.83
2022-12-14T20:33:50.926Z,31.33
2022-12-14T20:36:19.021Z,29.77
2022-12-14T20:38:49.190Z,28.63
2022-12-14T20:41:17.497Z,30.27
2022-12-14T20:43:45.643Z,28.47
2022-12-14T20:46:33.213Z,28.70
2022-12-14T20:49:23.747Z,29.83
2022-12-14T20:51:50.845Z,30.80
2022-12-14T20:54:22.836Z,30.33
2022-12-14T20:56:51.506Z,30.73
2022-12-14T20:59:19.043Z,34.83
2022-12-14T21:01:51.662Z,30.57
2022-12-14T21:04:23.052Z,30.70
2022-12-14T21:06:50.322Z,33.50
2022-12-14T21:09:17.603Z,29.40
2022-12-14T21:12:06.694Z,28.77
2022-12-14T21:14:43.678Z,26.93
2022-12-14T21:17:11.197Z,29.07
2022-12-14T21:19:41.008Z,28.87
2022-12-14T21:22:15.287Z,28.60
2022-12-14T21:25:02.487Z,28.40
2022-12-14T21:27:31.427Z,30.30
2022-12-14T21:30:00.724Z,33.73
2022-12-14T21:32:28.312Z,39.10
2022-12-14T21:34:55.474Z,33.33
2022-12-14T21:37:23.435Z,31.97
2022-12-14T21:39:54.591Z,36.30
2022-12-14T21:42:25.896Z,29.60
2022-12-14T21:44:55.193Z,30.97
2022-12-14T21:47:27.107Z,27.07
2022-12-14T21:49:54.915Z,30.63
2022-12-14T21:52:24.847Z,31.73
2022-12-14T21:54:52.569Z,26.00
2022-12-14T21:57:41.805Z,29.93
2022-12-14T22:00:10.590Z,28.20
2022-12-14T22:02:37.920Z,29.67
2022-12-14T22:05:06.000Z,28.43
2022-12-14T22:07:34.389Z,28.23
2022-12-14T22:10:02.176Z,27.73
2022-12-14T22:12:29.500Z,30.63
2022-12-14T22:14:56.713Z,28.43
2022-12-14T22:17:24.304Z,31.53
2022-12-14T22:19:54.319Z,30.93
2022-12-14T22:22:21.513Z,30.13
2022-12-14T22:24:51.685Z,34.00
2022-12-14T22:27:20.058Z,32.10
2022-12-14T22:29:47.453Z,32.63
2022-12-14T22:32:15.519Z,32.83
2022-12-14T22:34:42.795Z,30.73
2022-12-14T22:37:09.899Z,32.63
2022-12-14T22:39:37.096Z,29.63
2022-12-14T22:42:04.344Z,34.50
2022-12-14T22:44:31.568Z,32.90
2022-12-14T22:46:58.839Z,36.27
2022-12-14T22:49:26.110Z,33.30
2022-12-14T22:51:55.661Z,31.87
2022-12-14T22:54:27.009Z,28.87
2022-12-14T22:56:59.109Z,31.03
2022-12-14T22:59:42.559Z,33.43
2022-12-14T23:02:10.058Z,33.87
2022-12-14T23:04:40.529Z,33.03
2022-12-14T23:07:21.098Z,38.23
2022-12-14T23:10:07.441Z,34.10
2022-12-14T23:12:54.552Z,31.87
2022-12-14T23:15:42.918Z,37.43
2022-12-14T23:18:28.904Z,33.47
2022-12-14T23:21:15.273Z,34.83
2022-12-14T23:24:04.338Z,35.20
2022-12-14T23:26:51.551Z,33.33
2022-12-14T23:29:37.385Z,38.00
2022-12-14T23:32:23.780Z,37.53
2022-12-14T23:35:09.631Z,33.83
2022-12-14T23:37:55.493Z,36.27
2022-12-14T23:40:41.788Z,33.33
2022-12-14T23:43:37.213Z,35.50
2022-12-14T23:46:25.553Z,34.03
2022-12-14T23:49:15.733Z,34.23
2022-12-14T23:52:02.405Z,34.93
2022-12-14T23:54:48.341Z,36.13
2022-12-14T23:57:34.187Z,35.43
